Thedford, Canada
Current Conditions -  °F | °C
As of 2:00 AM on Saturday 29 Nov 2014 (Local Time) from CYZR Reporting Station
Overcast Overcast  
Wind Chill: 18°   Ceiling: 6500
Heat Index: 28°   Visibility: 9mi
Dew Point: 25°   Wind: 13mph
Humidity: 86%   Direction: 160°SSE
Pressure: 30.06"   Gusts: NA
Location:  43.17°N, 81.85°W
Report Text: CYZR 290700Z AUTO 16011KT 9SM BKN065 OVC080 M02/M04 A3006 RMK PRESFR SLP188
Loading
Personal Weather Stations






























Interactive Weather Map New forecast layout! Learn more

10-Day Weather Forecast

Advertisements
Track Severe Weather on mobile